createdAt,value
2022-07-25T00:02:19.704Z,99.90
2022-07-25T00:04:48.279Z,99.90
2022-07-25T00:07:16.248Z,99.90
2022-07-25T00:09:44.171Z,99.90
2022-07-25T00:12:14.005Z,99.90
2022-07-25T00:14:43.228Z,99.90
2022-07-25T00:17:11.158Z,99.90
2022-07-25T00:19:39.122Z,99.90
2022-07-25T00:22:07.029Z,99.90
2022-07-25T00:24:35.330Z,99.90
2022-07-25T00:27:03.758Z,99.90
2022-07-25T00:29:31.689Z,99.90
2022-07-25T00:32:00.952Z,99.90
2022-07-25T00:34:28.830Z,99.90
2022-07-25T00:36:56.737Z,99.90
2022-07-25T00:39:24.587Z,99.90
2022-07-25T00:41:52.519Z,99.90
2022-07-25T00:44:25.081Z,99.90
2022-07-25T00:46:53.178Z,99.90
2022-07-25T00:49:22.864Z,99.90
2022-07-25T00:51:51.344Z,99.90
2022-07-25T00:54:19.433Z,99.90
2022-07-25T00:56:47.729Z,99.90
2022-07-25T00:59:16.632Z,99.90
2022-07-25T01:01:47.802Z,99.90
2022-07-25T01:04:16.816Z,99.90
2022-07-25T01:06:46.280Z,99.90
2022-07-25T01:09:14.804Z,99.90
2022-07-25T01:11:42.736Z,99.90
2022-07-25T01:14:10.729Z,99.90
2022-07-25T01:16:38.625Z,99.90
2022-07-25T01:19:06.499Z,99.90
2022-07-25T01:21:39.065Z,99.90
2022-07-25T01:24:08.849Z,99.90
2022-07-25T01:26:37.450Z,99.90
2022-07-25T01:29:06.351Z,99.90
2022-07-25T01:31:34.274Z,99.90
2022-07-25T01:34:02.329Z,99.90
2022-07-25T01:36:30.293Z,99.90
2022-07-25T01:38:59.893Z,1.00
2022-07-25T01:41:27.844Z,1.00
2022-07-25T01:43:55.736Z,1.00
2022-07-25T01:46:23.687Z,1.00
2022-07-25T01:48:51.684Z,1.00
2022-07-25T01:51:19.846Z,1.00
2022-07-25T01:53:48.556Z,12.70
2022-07-25T01:56:17.929Z,99.90
2022-07-25T01:58:49.111Z,99.90
2022-07-25T02:01:17.034Z,99.90
2022-07-25T02:03:47.202Z,99.90
2022-07-25T02:06:15.032Z,99.90
2022-07-25T02:08:42.885Z,99.90
2022-07-25T02:11:10.842Z,1.00
2022-07-25T02:13:40.027Z,1.00
2022-07-25T02:16:07.902Z,1.00
2022-07-25T02:18:35.819Z,1.00
2022-07-25T02:21:07.090Z,1.00
2022-07-25T02:23:42.908Z,1.00
2022-07-25T02:26:11.246Z,1.00
2022-07-25T02:28:40.933Z,1.00
2022-07-25T02:31:09.327Z,1.00
2022-07-25T02:33:37.736Z,1.00
2022-07-25T02:36:05.751Z,99.90
2022-07-25T02:38:33.593Z,1.00
2022-07-25T02:41:01.459Z,1.00
2022-07-25T02:43:29.303Z,23.50
2022-07-25T02:45:58.659Z,1.00
2022-07-25T02:48:26.653Z,1.00
2022-07-25T02:50:54.526Z,99.90
2022-07-25T02:53:40.294Z,99.90
2022-07-25T02:56:10.348Z,99.90
2022-07-25T02:58:39.353Z,1.00
2022-07-25T03:01:09.207Z,99.90
2022-07-25T03:03:37.290Z,99.90
2022-07-25T03:06:05.587Z,99.90
2022-07-25T03:08:33.454Z,31.00
2022-07-25T03:11:01.325Z,1.00
2022-07-25T03:13:29.274Z,1.00
2022-07-25T03:15:57.116Z,1.00
2022-07-25T03:18:26.277Z,80.40
2022-07-25T03:20:54.108Z,99.90
2022-07-25T03:23:21.952Z,99.90
2022-07-25T03:25:49.817Z,1.00
2022-07-25T03:28:17.662Z,1.00
2022-07-25T03:30:45.527Z,1.00
2022-07-25T03:33:13.348Z,99.90
2022-07-25T03:35:42.958Z,99.90
2022-07-25T03:38:11.016Z,10.40
2022-07-25T03:40:39.510Z,91.20
2022-07-25T03:43:07.407Z,99.90
2022-07-25T03:45:35.432Z,99.90
2022-07-25T03:48:03.337Z,1.00
2022-07-25T03:50:31.235Z,99.90
2022-07-25T03:53:00.429Z,1.00
2022-07-25T03:55:28.373Z,99.90
2022-07-25T03:57:56.206Z,31.80
2022-07-25T04:00:24.168Z,1.00
2022-07-25T04:02:52.122Z,1.00
2022-07-25T04:05:20.012Z,1.00
2022-07-25T04:07:47.839Z,99.90
2022-07-25T04:10:17.675Z,1.00
2022-07-25T04:12:45.568Z,1.00
2022-07-25T04:15:13.686Z,1.00
2022-07-25T04:17:41.532Z,99.90
2022-07-25T04:20:10.279Z,99.90
2022-07-25T04:22:40.083Z,99.90
2022-07-25T04:25:10.558Z,99.90
2022-07-25T04:27:39.741Z,99.90
2022-07-25T04:30:08.594Z,99.90
2022-07-25T04:32:36.411Z,99.90
2022-07-25T04:35:04.491Z,99.90
2022-07-25T04:37:32.762Z,1.00
2022-07-25T04:40:00.587Z,1.00
2022-07-25T04:42:28.823Z,1.00
2022-07-25T04:44:58.068Z,1.00
2022-07-25T04:47:25.943Z,1.00
2022-07-25T04:49:53.836Z,99.90
2022-07-25T04:52:21.673Z,99.90
2022-07-25T04:54:49.530Z,1.00
2022-07-25T04:57:17.419Z,1.00
2022-07-25T04:59:45.321Z,1.00
2022-07-25T05:02:14.562Z,99.90
2022-07-25T05:04:45.297Z,99.90
2022-07-25T05:07:13.333Z,99.90
2022-07-25T05:09:41.190Z,99.90
2022-07-25T05:12:09.556Z,99.90
2022-07-25T05:14:37.404Z,99.90
2022-07-25T05:17:05.494Z,99.90
2022-07-25T05:19:35.056Z,1.00
2022-07-25T05:22:03.597Z,99.90
2022-07-25T05:24:34.395Z,99.90
2022-07-25T05:27:02.271Z,99.90
2022-07-25T05:29:30.123Z,16.80
2022-07-25T05:31:58.050Z,1.00
2022-07-25T05:34:25.921Z,99.90
2022-07-25T05:36:55.096Z,98.80
2022-07-25T05:39:22.932Z,99.90
2022-07-25T05:41:50.778Z,99.90
2022-07-25T05:44:18.752Z,28.60
2022-07-25T05:46:46.653Z,89.10
2022-07-25T05:49:15.925Z,99.90
2022-07-25T05:51:43.839Z,99.90
2022-07-25T05:54:13.006Z,99.90
2022-07-25T05:56:40.898Z,1.00
2022-07-25T05:59:09.183Z,1.00
2022-07-25T06:01:37.046Z,99.90
2022-07-25T06:04:05.311Z,99.90
2022-07-25T06:06:33.370Z,99.90
2022-07-25T06:09:01.240Z,1.00
2022-07-25T06:11:31.522Z,99.90
2022-07-25T06:14:00.033Z,99.90
2022-07-25T06:16:27.934Z,1.00
2022-07-25T06:18:55.813Z,1.00
2022-07-25T06:21:23.697Z,1.00
2022-07-25T06:23:51.543Z,99.90
2022-07-25T06:26:19.401Z,99.90
2022-07-25T06:28:49.185Z,1.00
2022-07-25T06:31:17.207Z,1.00
2022-07-25T06:33:45.175Z,1.00
2022-07-25T06:36:13.084Z,1.00
2022-07-25T06:38:40.939Z,1.00
2022-07-25T06:41:08.796Z,99.90
2022-07-25T06:43:36.657Z,99.90
2022-07-25T06:46:05.963Z,99.90
2022-07-25T06:48:33.834Z,99.90
2022-07-25T06:51:01.730Z,1.00
2022-07-25T06:53:29.633Z,1.00
2022-07-25T06:55:57.513Z,1.00
2022-07-25T06:58:25.911Z,99.90
2022-07-25T07:00:53.969Z,99.90
2022-07-25T07:03:23.296Z,99.90
2022-07-25T07:05:51.279Z,99.90
2022-07-25T07:08:19.148Z,99.90
2022-07-25T07:10:47.026Z,99.90
2022-07-25T07:13:22.045Z,99.90
2022-07-25T07:15:52.547Z,99.90
2022-07-25T07:18:21.661Z,99.90
2022-07-25T07:20:51.780Z,99.90
2022-07-25T07:23:20.192Z,99.90
2022-07-25T07:25:48.460Z,99.90
2022-07-25T07:28:16.844Z,99.90
2022-07-25T07:31:14.509Z,99.90
2022-07-25T07:33:33.361Z,99.90
2022-07-25T07:36:03.059Z,99.90
2022-07-25T07:38:30.947Z,99.90
2022-07-25T07:40:58.889Z,99.90
2022-07-25T07:43:30.086Z,99.90
2022-07-25T07:46:00.713Z,99.90
2022-07-25T07:48:29.430Z,99.90
2022-07-25T07:50:58.040Z,99.90
2022-07-25T07:53:47.678Z,99.90
2022-07-25T07:56:15.148Z,99.90
2022-07-25T07:58:43.179Z,99.90
2022-07-25T08:01:11.085Z,99.90
2022-07-25T08:03:38.986Z,99.90
2022-07-25T08:06:07.547Z,99.90
2022-07-25T08:08:36.809Z,99.90
2022-07-25T08:11:05.002Z,99.90
2022-07-25T08:13:34.914Z,99.90
2022-07-25T08:16:04.304Z,99.90
2022-07-25T08:18:33.491Z,99.90
2022-07-25T08:21:03.338Z,99.90
2022-07-25T08:23:32.981Z,99.90
2022-07-25T08:26:02.778Z,99.90
2022-07-25T08:28:30.650Z,99.90
2022-07-25T08:30:59.310Z,99.90
2022-07-25T08:33:28.271Z,99.90
2022-07-25T08:35:58.807Z,99.90
2022-07-25T08:38:28.524Z,99.90
2022-07-25T08:40:57.512Z,99.90
2022-07-25T08:43:27.173Z,99.90
2022-07-25T08:45:56.008Z,99.90
2022-07-25T08:48:26.553Z,99.90
2022-07-25T08:50:57.084Z,99.90
2022-07-25T08:53:34.879Z,99.90
2022-07-25T08:56:11.174Z,99.90
2022-07-25T08:58:44.166Z,99.90
2022-07-25T09:01:12.540Z,99.90
2022-07-25T09:03:40.571Z,99.90
2022-07-25T09:06:19.862Z,99.90
2022-07-25T09:08:55.695Z,99.90
2022-07-25T09:11:31.493Z,99.90
2022-07-25T09:14:02.754Z,99.90
2022-07-25T09:16:34.040Z,99.90
2022-07-25T09:19:10.614Z,99.90
2022-07-25T09:21:39.844Z,99.90
2022-07-25T09:24:16.869Z,99.90
2022-07-25T09:26:49.632Z,99.90
2022-07-25T09:29:21.080Z,99.90
2022-07-25T09:31:49.796Z,99.90
2022-07-25T09:34:29.753Z,99.90
2022-07-25T09:36:57.648Z,99.90
2022-07-25T09:39:35.125Z,99.90
2022-07-25T09:42:03.159Z,99.90
2022-07-25T09:44:32.367Z,99.90
2022-07-25T09:47:10.527Z,99.90
2022-07-25T09:49:41.567Z,99.90
2022-07-25T09:52:10.316Z,99.90
2022-07-25T09:54:38.935Z,99.90
2022-07-25T09:57:07.183Z,99.90
2022-07-25T09:59:38.039Z,99.90
2022-07-25T10:02:10.343Z,99.90
2022-07-25T10:04:46.467Z,99.90
2022-07-25T10:07:17.146Z,99.90
2022-07-25T10:09:46.795Z,99.90
2022-07-25T10:12:19.253Z,99.90
2022-07-25T10:15:08.872Z,99.90
2022-07-25T10:17:38.257Z,99.90
2022-07-25T10:20:08.509Z,99.90
2022-07-25T10:22:56.250Z,99.90
2022-07-25T10:25:25.213Z,99.90
2022-07-25T10:28:00.805Z,99.90
2022-07-25T10:30:36.487Z,99.90
2022-07-25T10:33:06.557Z,99.90
2022-07-25T10:35:34.660Z,99.90
2022-07-25T10:38:05.471Z,99.90
2022-07-25T10:40:36.708Z,99.90
2022-07-25T10:43:09.798Z,99.90
2022-07-25T10:45:44.708Z,99.90
2022-07-25T10:48:22.061Z,99.90
2022-07-25T10:50:56.545Z,99.90
2022-07-25T10:53:39.362Z,99.90
2022-07-25T10:56:09.273Z,99.90
2022-07-25T10:58:44.707Z,99.90
2022-07-25T11:01:15.210Z,99.90
2022-07-25T11:03:45.286Z,99.90
2022-07-25T11:06:14.876Z,99.90
2022-07-25T11:08:43.497Z,99.90
2022-07-25T11:11:12.241Z,99.90
2022-07-25T11:13:40.960Z,99.90
2022-07-25T11:16:09.742Z,99.90
2022-07-25T11:18:40.921Z,99.90
2022-07-25T11:21:09.976Z,99.90
2022-07-25T11:23:37.894Z,99.90
2022-07-25T11:26:08.052Z,99.90
2022-07-25T11:28:43.914Z,99.90
2022-07-25T11:31:13.197Z,99.90
2022-07-25T11:33:45.330Z,99.90
2022-07-25T11:36:13.929Z,99.90
2022-07-25T11:38:42.316Z,99.90
2022-07-25T11:41:10.270Z,99.90
2022-07-25T11:43:38.134Z,99.90
2022-07-25T11:46:07.644Z,99.90
2022-07-25T11:48:37.634Z,99.90
2022-07-25T11:51:18.881Z,99.90
2022-07-25T11:53:49.552Z,99.90
2022-07-25T11:56:41.343Z,99.90
2022-07-25T11:59:08.431Z,99.90
2022-07-25T12:01:38.047Z,99.90
2022-07-25T12:04:10.975Z,99.90
2022-07-25T12:06:40.491Z,99.90
2022-07-25T12:09:17.964Z,99.90
2022-07-25T12:11:47.976Z,99.90
2022-07-25T12:14:16.850Z,99.90
2022-07-25T12:16:44.928Z,99.90
2022-07-25T12:19:20.337Z,99.90
2022-07-25T12:21:49.496Z,99.90
2022-07-25T12:24:17.407Z,99.90
2022-07-25T12:26:45.261Z,99.90
2022-07-25T12:29:13.131Z,99.90
2022-07-25T12:31:40.941Z,99.90
2022-07-25T12:34:08.791Z,99.90
2022-07-25T12:36:41.149Z,99.90
2022-07-25T12:39:10.712Z,99.90
2022-07-25T12:41:39.996Z,99.90
2022-07-25T12:44:07.841Z,99.90
2022-07-25T12:46:36.074Z,99.90
2022-07-25T12:49:04.483Z,99.90
2022-07-25T12:51:32.623Z,99.90
2022-07-25T12:54:00.455Z,99.90
2022-07-25T12:56:29.625Z,99.90
2022-07-25T12:58:57.431Z,99.90
2022-07-25T13:01:25.266Z,99.90
2022-07-25T13:03:53.149Z,99.90
2022-07-25T13:06:21.054Z,99.90
2022-07-25T13:08:48.978Z,99.90
2022-07-25T13:11:16.865Z,99.90
2022-07-25T13:13:46.037Z,99.90
2022-07-25T13:16:14.641Z,99.90
2022-07-25T13:18:44.333Z,99.90
2022-07-25T13:21:12.459Z,99.90
2022-07-25T13:23:40.842Z,99.90
2022-07-25T13:26:08.770Z,99.90
2022-07-25T13:28:36.690Z,99.90
2022-07-25T13:31:07.114Z,99.90
2022-07-25T13:33:35.264Z,99.90
2022-07-25T13:36:03.139Z,99.90
2022-07-25T13:38:30.992Z,99.90
2022-07-25T13:40:59.270Z,99.90
2022-07-25T13:43:27.144Z,99.90
2022-07-25T13:45:55.205Z,99.90
2022-07-25T13:48:29.996Z,99.90
2022-07-25T13:50:59.614Z,99.90
2022-07-25T13:53:30.280Z,99.90
2022-07-25T13:55:59.320Z,99.90
2022-07-25T13:58:27.803Z,99.90
2022-07-25T14:00:56.227Z,99.90
2022-07-25T14:03:25.460Z,99.90
2022-07-25T14:05:53.359Z,99.90
2022-07-25T14:08:22.221Z,99.90
2022-07-25T14:10:50.080Z,99.90
2022-07-25T14:13:17.936Z,99.90
2022-07-25T14:15:45.835Z,99.90
2022-07-25T14:18:13.731Z,99.90
2022-07-25T14:20:43.076Z,99.90
2022-07-25T14:23:10.987Z,99.90
2022-07-25T14:25:39.332Z,99.90
2022-07-25T14:28:07.324Z,99.90
2022-07-25T14:30:35.209Z,99.90
2022-07-25T14:33:03.054Z,99.90
2022-07-25T14:35:32.708Z,99.90
2022-07-25T14:38:02.284Z,99.90
2022-07-25T14:40:30.165Z,99.90
2022-07-25T14:42:58.008Z,99.90
2022-07-25T14:45:25.878Z,99.90
2022-07-25T14:47:53.891Z,99.90
2022-07-25T14:50:21.909Z,99.90
2022-07-25T14:52:49.753Z,99.90
2022-07-25T14:55:20.806Z,99.90
2022-07-25T14:57:48.770Z,99.90
2022-07-25T15:00:17.019Z,99.90
2022-07-25T15:02:45.045Z,99.90
2022-07-25T15:05:12.959Z,99.90
2022-07-25T15:07:40.830Z,99.90
2022-07-25T15:10:09.360Z,99.90
2022-07-25T15:12:38.632Z,99.90
2022-07-25T15:15:07.745Z,99.90
2022-07-25T15:17:35.587Z,99.90
2022-07-25T15:20:03.665Z,99.90
2022-07-25T15:22:32.377Z,99.90
2022-07-25T15:25:35.185Z,99.90
2022-07-25T15:27:49.366Z,99.90
2022-07-25T15:30:17.282Z,99.90
2022-07-25T15:32:45.752Z,99.90
2022-07-25T15:35:13.656Z,99.90
2022-07-25T15:37:41.510Z,99.90
2022-07-25T15:40:11.166Z,99.90
2022-07-25T15:42:39.537Z,99.90
2022-07-25T15:45:31.936Z,99.90
2022-07-25T15:47:57.554Z,99.90
2022-07-25T15:50:25.470Z,99.90
2022-07-25T15:52:53.485Z,99.90
2022-07-25T15:55:21.468Z,99.90
2022-07-25T15:57:49.277Z,99.90
2022-07-25T16:00:18.681Z,99.90
2022-07-25T16:02:46.787Z,99.90
2022-07-25T16:05:15.713Z,99.90
2022-07-25T16:07:44.131Z,99.90
2022-07-25T16:10:13.067Z,99.90
2022-07-25T16:12:41.178Z,99.90
2022-07-25T16:15:09.959Z,99.90
2022-07-25T16:17:39.474Z,99.90
2022-07-25T16:20:10.177Z,99.90
2022-07-25T16:22:39.355Z,99.90
2022-07-25T16:25:08.541Z,99.90
2022-07-25T16:27:36.444Z,99.90
2022-07-25T16:30:06.139Z,99.90
2022-07-25T16:32:34.756Z,99.90
2022-07-25T16:35:04.129Z,99.90
2022-07-25T16:37:31.968Z,99.90
2022-07-25T16:39:59.863Z,99.90
2022-07-25T16:42:27.893Z,99.90
2022-07-25T16:44:55.779Z,99.90
2022-07-25T16:47:23.634Z,99.90
2022-07-25T16:49:51.489Z,99.90
2022-07-25T16:52:22.580Z,99.90
2022-07-25T16:54:50.432Z,99.90
2022-07-25T16:57:18.266Z,99.90
2022-07-25T16:59:53.203Z,99.90
2022-07-25T17:02:23.885Z,99.90
2022-07-25T17:04:54.306Z,99.90
2022-07-25T17:07:23.648Z,99.90
2022-07-25T17:09:51.498Z,99.90
2022-07-25T17:12:19.538Z,99.90
2022-07-25T17:14:47.438Z,99.90
2022-07-25T17:17:15.311Z,99.90
2022-07-25T17:19:43.302Z,99.90
2022-07-25T17:22:11.854Z,99.90
2022-07-25T17:24:41.490Z,99.90
2022-07-25T17:27:10.030Z,99.90
2022-07-25T17:29:38.341Z,99.90
2022-07-25T17:32:07.068Z,99.90
2022-07-25T17:34:35.150Z,99.90
2022-07-25T17:37:03.593Z,99.90
2022-07-25T17:39:31.784Z,99.90
2022-07-25T17:42:01.237Z,99.90
2022-07-25T17:44:29.123Z,99.90
2022-07-25T17:46:57.177Z,99.90
2022-07-25T17:49:25.159Z,99.90
2022-07-25T17:51:53.116Z,99.90
2022-07-25T17:54:21.028Z,99.90
2022-07-25T17:56:49.199Z,99.90
2022-07-25T17:59:18.369Z,99.90
2022-07-25T18:01:46.539Z,99.90
2022-07-25T18:04:14.672Z,99.90
2022-07-25T18:06:42.846Z,99.90
2022-07-25T18:09:10.742Z,99.90
2022-07-25T18:11:38.602Z,99.90
2022-07-25T18:14:06.758Z,99.90
2022-07-25T18:16:36.294Z,99.90
2022-07-25T18:19:04.736Z,99.90
2022-07-25T18:21:32.577Z,99.90
2022-07-25T18:24:00.669Z,99.90
2022-07-25T18:26:29.195Z,99.90
2022-07-25T18:28:57.116Z,99.90
2022-07-25T18:31:25.011Z,99.90
2022-07-25T18:33:54.233Z,99.90
2022-07-25T18:36:22.204Z,99.90
2022-07-25T18:38:53.672Z,99.90
2022-07-25T18:41:30.116Z,99.90
2022-07-25T18:43:58.527Z,99.90
2022-07-25T18:46:26.636Z,99.90
2022-07-25T18:48:56.695Z,99.90
2022-07-25T18:51:24.727Z,99.90
2022-07-25T18:53:52.551Z,99.90
2022-07-25T18:56:20.418Z,99.90
2022-07-25T18:58:48.334Z,99.90
2022-07-25T19:01:16.287Z,99.90
2022-07-25T19:03:44.311Z,99.90
2022-07-25T19:06:13.673Z,99.90
2022-07-25T19:08:42.127Z,99.90
2022-07-25T19:11:10.510Z,99.90
2022-07-25T19:13:49.538Z,99.90
2022-07-25T19:16:18.642Z,99.90
2022-07-25T19:18:46.681Z,99.90
2022-07-25T19:21:16.811Z,99.90
2022-07-25T19:23:50.152Z,99.90
2022-07-25T19:26:19.154Z,99.90
2022-07-25T19:28:47.127Z,99.90
2022-07-25T19:31:15.269Z,99.90
2022-07-25T19:33:45.478Z,99.90
2022-07-25T19:36:14.860Z,99.90
2022-07-25T19:38:42.829Z,99.90
2022-07-25T19:41:10.690Z,99.90
2022-07-25T19:43:38.578Z,99.90
2022-07-25T19:46:06.626Z,99.90
2022-07-25T19:48:34.706Z,99.90
2022-07-25T19:51:02.613Z,99.90
2022-07-25T19:53:32.598Z,99.90
2022-07-25T19:56:01.294Z,99.90
2022-07-25T19:58:29.208Z,99.90
2022-07-25T20:00:57.082Z,99.90
2022-07-25T20:03:24.930Z,99.90
2022-07-25T20:05:52.854Z,99.90
2022-07-25T20:08:20.795Z,99.90
2022-07-25T20:10:50.053Z,99.90
2022-07-25T20:13:18.948Z,99.90
2022-07-25T20:15:46.982Z,99.90
2022-07-25T20:18:19.313Z,99.90
2022-07-25T20:20:47.795Z,99.90
2022-07-25T20:23:15.617Z,99.90
2022-07-25T20:25:43.716Z,99.90
2022-07-25T20:28:12.957Z,99.90
2022-07-25T20:30:40.944Z,99.90
2022-07-25T20:33:09.838Z,99.90
2022-07-25T20:35:38.834Z,99.90
2022-07-25T20:38:09.525Z,99.90
2022-07-25T20:40:38.862Z,99.90
2022-07-25T20:43:09.140Z,99.90
2022-07-25T20:45:38.796Z,99.90
2022-07-25T20:48:07.369Z,99.90
2022-07-25T20:50:37.281Z,99.90
2022-07-25T20:53:06.013Z,99.90
2022-07-25T20:55:34.322Z,99.90
2022-07-25T20:58:02.579Z,99.90
2022-07-25T21:00:30.838Z,99.90
2022-07-25T21:03:00.739Z,99.90
2022-07-25T21:05:29.268Z,99.90
2022-07-25T21:07:57.333Z,99.90
2022-07-25T21:10:25.325Z,99.90
2022-07-25T21:12:55.809Z,99.90
2022-07-25T21:15:24.052Z,99.90
2022-07-25T21:17:52.305Z,99.90
2022-07-25T21:20:21.731Z,99.90
2022-07-25T21:22:50.676Z,99.90
2022-07-25T21:25:18.533Z,99.90
2022-07-25T21:27:46.366Z,99.90
2022-07-25T21:30:14.777Z,99.90
2022-07-25T21:32:42.788Z,99.90
2022-07-25T21:35:11.186Z,99.90
2022-07-25T21:37:40.418Z,99.90
2022-07-25T21:40:10.284Z,99.90
2022-07-25T21:42:38.449Z,99.90
2022-07-25T21:45:07.517Z,99.90
2022-07-25T21:47:35.556Z,99.90
2022-07-25T21:50:24.951Z,99.90
2022-07-25T21:52:54.839Z,99.90
2022-07-25T21:55:23.331Z,99.90
2022-07-25T21:57:52.253Z,99.90
2022-07-25T22:00:21.093Z,99.90
2022-07-25T22:02:49.021Z,99.90
2022-07-25T22:05:18.874Z,99.90
2022-07-25T22:07:47.466Z,99.90
2022-07-25T22:10:18.404Z,99.90
2022-07-25T22:12:46.294Z,99.90
2022-07-25T22:15:14.706Z,99.90
2022-07-25T22:17:49.187Z,99.90
2022-07-25T22:20:18.689Z,99.90
2022-07-25T22:22:47.021Z,99.90
2022-07-25T22:25:16.617Z,99.90
2022-07-25T22:27:45.073Z,99.90
2022-07-25T22:30:18.732Z,99.90
2022-07-25T22:32:47.982Z,99.90
2022-07-25T22:35:16.089Z,99.90
2022-07-25T22:37:44.226Z,99.90
2022-07-25T22:40:13.508Z,99.90
2022-07-25T22:42:42.707Z,99.90
2022-07-25T22:45:11.213Z,99.90
2022-07-25T22:47:39.221Z,99.90
2022-07-25T22:50:08.743Z,99.90
2022-07-25T22:52:36.623Z,99.90
2022-07-25T22:55:05.109Z,99.90
2022-07-25T22:57:37.206Z,99.90
2022-07-25T23:00:09.731Z,99.90
2022-07-25T23:02:37.681Z,99.90
2022-07-25T23:05:08.547Z,99.90
2022-07-25T23:07:36.672Z,99.90
2022-07-25T23:10:05.468Z,99.90
2022-07-25T23:12:33.374Z,99.90
2022-07-25T23:15:01.315Z,99.90
2022-07-25T23:17:30.607Z,99.90
2022-07-25T23:19:58.678Z,99.90
2022-07-25T23:22:28.231Z,99.90
2022-07-25T23:24:56.236Z,99.90
2022-07-25T23:27:24.625Z,99.90
2022-07-25T23:29:52.948Z,99.90
2022-07-25T23:32:20.854Z,99.90
2022-07-25T23:34:50.060Z,99.90
2022-07-25T23:37:18.051Z,99.90
2022-07-25T23:39:45.927Z,99.90
2022-07-25T23:42:13.817Z,99.90
2022-07-25T23:44:42.745Z,99.90
2022-07-25T23:47:12.533Z,99.90
2022-07-25T23:49:41.140Z,99.90
2022-07-25T23:52:10.579Z,99.90
2022-07-25T23:54:40.626Z,99.90
2022-07-25T23:57:09.139Z,99.90
2022-07-25T23:59:37.309Z,99.90
